KBBD - Brady/Curtis Fld, TX, US

Issued at 2320 UTC 31 Oct 2020
Updated at 0119 UTC 01 Nov 2020
Potential Impact None Slight Moderate High
Time0055Z 01/02Z 01/03Z 01/04Z 01/05Z 01/06Z 01/07Z 01/08Z 01/09Z 01/10Z 01/11Z 01/12Z 01/13Z 01/14Z>>
Type OBS PRVL PRVL PRVL PRVL PRVL PRVL PRVL PRVL PRVL PRVL PRVL PRVL PRVL
VIS 10 >6 >6 >6 >6 >6 >6 >6 >6 >6 >6 >6 >6 >6
CIG -- -- -- -- -- -- -- -- -- -- -- -- -- --
Cover CLR SKC SKC SKC SKC SKC SKC SKC SKC SKC SKC SKC SKC SKC
FltCat VFR VFR VFR VFR VFR VFR VFR VFR VFR VFR VFR VFR VFR VFR
WX -- -- -- -- -- -- -- -- -- -- -- -- -- --
WDir 190 190 190 190 190 190 190 190 190 20 20 20 20 20
WSpd 4 5 5 5 5 5 5 5 5 12 12 12 12 12
WGst -- -- -- -- -- -- -- -- -- -- -- -- -- --
Raw TAF
KBBD 312320Z 0100/0124 19005KT P6SM SKC
  FM011000 02012KT P6SM SKC


Raw METAR
KBBD 010055Z AUTO 19004KT 10SM CLR 20/04 A3011 RMK AO2
KBBD 010035Z AUTO 18005KT 10SM CLR 22/04 A3010 RMK AO2
KBBD 010015Z AUTO 17005KT 10SM CLR 22/04 A3010 RMK AO2
KBBD 312355Z AUTO 17004KT 10SM CLR 23/04 A3009 RMK AO2
KBBD 312335Z AUTO 19004KT 10SM CLR 23/04 A3008 RMK AO2
KBBD 312315Z AUTO 21004KT 10SM CLR 24/04 A3008 RMK AO2
KBBD 312255Z AUTO 25004KT 10SM CLR 25/03 A3007 RMK AO2
KBBD 312235Z AUTO 20008KT 10SM CLR 26/03 A3007 RMK AO2

METAR Board
Radar Display
Forecast Discussion
For situational awareness. Not to be used for flight planning purposes.